Aviation Digital Data Service (ADDS)

Output produced by METARs form (1753 UTC 01 March 2017)
found at http://aviationweather.gov/adds/metars/
 
KMGW 011731Z 0118/0218 21013G21KT P6SM OVC040 
     FM012200 22015G33KT 5SM -SHRA VCTS OVC030CB 
     FM020100 26016G35KT P6SM VCSH BKN030 
     FM021200 27013G28KT P6SM BKN025 
     FM021600 28011G20KT P6SM BKN040